Time;durP1;ratioP1;P1;durP2;ratioP2;P2;SDS_P1;SDS_P2;PMS_P1;PMS_P2;Temp;Humidity;BMP_temperature;BMP_pressure;BME280_temperature;BME280_humidity;BME280_pressure;Samples;Min_cycle;Max_cycle;Signal;HPM_P1;HPM_P2
2021/11/20 00:01:00;;;;;;;2.67;1.92;;;;;;;10.58;72.46;102154.94;5013597;28;20476;-89
2021/11/20 00:03:28;;;;;;;3.17;2.10;;;;;;;10.60;72.70;102159.03;5013152;28;20083;-88
2021/11/20 00:05:55;;;;;;;4.95;2.03;;;;;;;10.62;72.72;102158.72;5026132;28;20060;-82
2021/11/20 00:08:23;;;;;;;4.90;2.47;;;;;;;10.60;72.52;102147.97;5022037;28;20049;-82
2021/11/20 00:10:54;;;;;;;3.80;2.08;;;;;;;10.57;72.45;102151.34;5020756;28;20042;-81
2021/11/20 00:13:22;;;;;;;2.90;2.20;;;;;;;10.59;72.53;102148.28;5012993;28;20053;-82
2021/11/20 00:15:52;;;;;;;3.60;1.60;;;;;;;10.59;72.63;102139.97;5004627;28;20116;-81
2021/11/20 00:18:20;;;;;;;1.58;1.00;;;;;;;10.60;72.46;102131.34;5015432;28;20069;-82
2021/11/20 00:20:53;;;;;;;2.83;1.17;;;;;;;10.60;72.64;102127.75;5014279;28;20124;-83
2021/11/20 00:23:24;;;;;;;2.05;1.20;;;;;;;10.59;72.23;102131.69;5037197;28;20045;-83
2021/11/20 00:25:54;;;;;;;1.40;0.90;;;;;;;10.59;72.24;102134.44;5006712;28;20049;-82
2021/11/20 00:31:15;;;;;;;2.05;1.10;;;;;;;10.57;72.21;102136.69;5017194;28;20029;-82
2021/11/20 00:33:43;;;;;;;1.50;1.10;;;;;;;10.56;72.22;102130.34;5020940;28;20092;-82
2021/11/20 00:36:11;;;;;;;2.60;1.00;;;;;;;10.56;72.27;102135.06;5020281;28;20041;-81
2021/11/20 00:38:39;;;;;;;2.67;1.08;;;;;;;10.56;72.15;102135.06;5019427;28;20057;-82
2021/11/20 00:41:13;;;;;;;3.05;1.00;;;;;;;10.56;72.11;102129.53;5018674;28;20041;-81
2021/11/20 00:43:43;;;;;;;1.20;0.88;;;;;;;10.55;72.10;102128.69;5018607;28;20041;-82
2021/11/20 00:46:11;;;;;;;1.48;1.00;;;;;;;10.56;72.18;102129.53;4998223;28;20063;-82
2021/11/20 00:48:39;;;;;;;2.30;1.08;;;;;;;10.54;72.09;102132.59;5002955;28;20041;-82
2021/11/20 00:51:09;;;;;;;4.35;0.85;;;;;;;10.54;72.29;102127.06;5023080;28;20045;-82
2021/11/20 00:53:37;;;;;;;2.85;1.17;;;;;;;10.55;72.42;102127.88;5017631;28;20050;-82
2021/11/20 00:56:06;;;;;;;3.63;1.23;;;;;;;10.57;72.36;102125.59;5024329;28;20111;-81
2021/11/20 00:58:33;;;;;;;3.13;1.25;;;;;;;10.53;72.42;102116.28;5023153;28;20046;-82
2021/11/20 01:01:03;;;;;;;1.42;1.00;;;;;;;10.52;72.38;102111.88;5012721;28;20042;-82
2021/11/20 01:03:31;;;;;;;1.92;1.00;;;;;;;10.54;72.31;102104.09;5015291;28;20034;-82
2021/11/20 01:05:58;;;;;;;2.33;0.80;;;;;;;10.53;72.15;102096.91;5015837;28;20539;-82
2021/11/20 01:08:29;;;;;;;2.75;1.88;;;;;;;10.54;72.25;102104.09;5015438;28;20568;-82
2021/11/20 01:11:01;;;;;;;2.42;1.00;;;;;;;10.55;72.08;102108.50;5016471;28;20075;-82
2021/11/20 01:13:28;;;;;;;1.05;0.80;;;;;;;10.53;72.15;102121.84;5012311;28;20119;-82
2021/11/20 01:15:59;;;;;;;1.55;1.13;;;;;;;10.52;72.00;102117.41;5010156;28;20038;-82
2021/11/20 01:18:28;;;;;;;1.30;0.80;;;;;;;10.52;71.97;102111.88;5022288;28;20037;-82
2021/11/20 01:20:55;;;;;;;2.03;0.93;;;;;;;10.52;72.05;102106.34;5009544;28;20148;-82
2021/11/20 01:23:25;;;;;;;1.02;0.65;;;;;;;10.53;71.95;102108.00;5022465;28;20061;-83
2021/11/20 01:25:53;;;;;;;2.15;0.88;;;;;;;10.52;71.93;102107.16;5004466;28;20038;-82
2021/11/20 01:28:23;;;;;;;4.25;1.33;;;;;;;10.54;71.76;102102.13;5019207;28;20120;-82
2021/11/20 01:30:50;;;;;;;2.50;0.93;;;;;;;10.56;71.75;102101.84;5014613;28;20033;-82
2021/11/20 01:33:18;;;;;;;0.60;0.60;;;;;;;10.55;71.53;102106.56;5020729;28;20433;-81
2021/11/20 01:35:45;;;;;;;2.00;1.10;;;;;;;10.57;71.75;102089.59;5026129;28;20045;-81
2021/11/20 01:38:12;;;;;;;0.88;0.65;;;;;;;10.57;71.47;102109.00;5019770;28;20509;-81
2021/11/20 01:40:41;;;;;;;1.58;1.00;;;;;;;10.56;71.70;102090.75;5015637;28;20095;-82
2021/11/20 01:43:09;;;;;;;1.80;1.15;;;;;;;10.55;71.52;102095.47;5023404;28;20141;-80
2021/11/20 01:45:56;;;;;;;3.25;1.10;;;;;;;10.57;71.42;102092.38;5017142;28;20041;-80
2021/11/20 01:48:23;;;;;;;0.82;0.80;;;;;;;10.59;71.55;102087.38;5024118;28;20037;-80
2021/11/20 01:50:56;;;;;;;1.35;1.10;;;;;;;10.58;71.49;102089.31;5019799;28;20054;-80
2021/11/20 01:53:47;;;;;;;3.05;2.00;;;;;;;10.56;71.20;102083.28;5020240;28;20061;-79
2021/11/20 01:56:22;;;;;;;2.72;0.93;;;;;;;10.55;71.33;102080.81;5025004;28;20038;-79
2021/11/20 01:58:58;;;;;;;4.18;1.88;;;;;;;10.57;71.40;102089.59;5021647;28;20103;-80
2021/11/20 02:01:31;;;;;;;2.53;1.05;;;;;;;10.58;71.20;102094.03;5013760;28;20133;-80
2021/11/20 02:04:07;;;;;;;0.70;0.60;;;;;;;10.58;71.67;102082.94;5019392;28;20046;-79
2021/11/20 02:06:39;;;;;;;1.10;0.90;;;;;;;10.58;71.40;102085.72;5017244;28;20095;-79
2021/11/20 02:09:15;;;;;;;1.00;0.80;;;;;;;10.57;71.35;102092.38;5025829;28;20061;-79
2021/11/20 02:11:50;;;;;;;1.38;0.90;;;;;;;10.57;71.26;102086.84;5022668;28;20095;-79
2021/11/20 02:14:19;;;;;;;1.67;1.00;;;;;;;10.57;71.43;102086.84;5023938;28;20104;-79
2021/11/20 02:16:52;;;;;;;1.45;0.90;;;;;;;10.54;71.40;102076.41;5027213;28;20417;-82
2021/11/20 02:19:30;;;;;;;1.33;0.98;;;;;;;10.55;71.43;102084.41;5025089;28;20081;-83
2021/11/20 02:22:07;;;;;;;0.43;0.40;;;;;;;10.56;71.65;102076.91;5023751;28;20116;-82
2021/11/20 02:24:34;;;;;;;1.05;0.70;;;;;;;10.58;71.72;102077.41;5020124;28;20037;-82
2021/11/20 02:27:05;;;;;;;0.88;0.60;;;;;;;10.58;71.61;102063.56;5026771;28;20037;-82
2021/11/20 02:29:43;;;;;;;0.77;0.65;;;;;;;10.56;71.98;102071.38;5023623;28;20088;-81
2021/11/20 02:32:11;;;;;;;0.85;0.60;;;;;;;10.58;72.04;102063.56;5021307;28;20107;-82
2021/11/20 02:34:38;;;;;;;2.13;1.58;;;;;;;10.60;72.11;102058.53;5024801;28;20128;-81
2021/11/20 02:37:05;;;;;;;0.88;0.50;;;;;;;10.60;72.06;102052.97;5008445;28;20128;-82
2021/11/20 02:39:32;;;;;;;1.52;0.95;;;;;;;10.60;72.17;102047.44;5020524;28;20058;-82
2021/11/20 02:42:03;;;;;;;2.33;0.60;;;;;;;10.59;72.13;102040.28;5024238;28;20045;-81
2021/11/20 02:44:30;;;;;;;0.93;0.60;;;;;;;10.61;72.29;102051.88;5024189;28;20053;-81
2021/11/20 02:47:01;;;;;;;1.27;1.17;;;;;;;10.61;72.47;102043.56;5024762;28;20091;-82
2021/11/20 02:49:28;;;;;;;0.75;0.60;;;;;;;10.61;72.33;102040.78;5018535;28;20081;-82
2021/11/20 02:51:59;;;;;;;0.60;0.43;;;;;;;10.57;72.21;102037.00;5020637;28;20056;-80
2021/11/20 02:54:28;;;;;;;3.00;0.60;;;;;;;10.58;72.15;102022.03;5018457;28;20038;-82
2021/11/20 02:56:57;;;;;;;1.52;0.88;;;;;;;10.58;72.56;102022.03;5023835;28;20064;-82
2021/11/20 02:59:24;;;;;;;1.42;0.57;;;;;;;10.58;72.29;102017.31;5020735;28;20826;-81
2021/11/20 03:01:51;;;;;;;2.67;0.57;;;;;;;10.59;72.11;102005.09;4994676;28;20481;-79
2021/11/20 03:04:22;;;;;;;1.63;0.60;;;;;;;10.57;72.10;101996.28;5015835;28;20057;-79
2021/11/20 03:06:53;;;;;;;0.63;0.50;;;;;;;10.57;72.07;101998.22;5020392;28;20066;-80
2021/11/20 03:09:23;;;;;;;3.30;0.77;;;;;;;10.56;72.11;101996.59;5020036;28;20048;-79
2021/11/20 03:11:51;;;;;;;1.27;0.80;;;;;;;10.54;71.95;101987.81;5018328;28;20045;-80
2021/11/20 03:14:19;;;;;;;0.55;0.30;;;;;;;10.54;71.97;101991.38;5019659;28;20473;-79
2021/11/20 03:16:53;;;;;;;1.05;0.98;;;;;;;10.53;72.03;101986.16;5018587;28;20045;-79
2021/11/20 03:19:22;;;;;;;0.52;0.52;;;;;;;10.53;71.95;101977.84;5021163;28;20042;-80
2021/11/20 03:22:09;;;;;;;2.38;0.50;;;;;;;10.53;71.87;101969.53;5011426;28;20041;-79
2021/11/20 03:24:37;;;;;;;1.05;0.43;;;;;;;10.54;71.93;101976.72;5014525;28;20057;-80
2021/11/20 03:27:05;;;;;;;0.95;0.30;;;;;;;10.52;72.26;101973.44;5023731;28;20064;-79
2021/11/20 03:29:34;;;;;;;0.20;0.20;;;;;;;10.51;72.16;101977.34;5026305;28;20029;-80
2021/11/20 03:32:03;;;;;;;1.15;0.40;;;;;;;10.52;71.83;101967.91;5017633;28;20052;-80
2021/11/20 03:34:32;;;;;;;0.70;0.30;;;;;;;10.53;71.89;101977.84;5009513;28;20038;-79
2021/11/20 03:37:00;;;;;;;10.70;1.17;;;;;;;10.54;71.94;101971.97;5021668;28;20120;-79
2021/11/20 03:39:27;;;;;;;0.65;0.20;;;;;;;10.54;71.78;101971.97;5022163;28;20052;-80
2021/11/20 03:41:54;;;;;;;3.47;0.22;;;;;;;10.54;71.63;101960.13;5019495;28;20049;-80
2021/11/20 03:44:22;;;;;;;2.58;0.20;;;;;;;10.53;71.37;101959.28;5021157;28;20068;-79
2021/11/20 03:46:49;;;;;;;0.20;0.20;;;;;;;10.54;71.54;101954.56;5021647;28;20679;-80
2021/11/20 03:49:16;;;;;;;2.85;0.68;;;;;;;10.54;71.47;101955.38;5012359;28;20045;-79
2021/11/20 03:51:43;;;;;;;0.75;0.30;;;;;;;10.52;71.43;101952.09;5016093;28;20088;-83
2021/11/20 03:54:11;;;;;;;4.00;0.30;;;;;;;10.51;71.32;101939.38;5015560;28;20041;-80
2021/11/20 03:56:39;;;;;;;1.30;0.40;;;;;;;10.52;71.37;101951.28;5017778;28;20061;-82
2021/11/20 03:59:06;;;;;;;1.10;0.20;;;;;;;10.50;71.32;101943.31;5021657;28;20065;-82
2021/11/20 04:01:34;;;;;;;1.65;0.20;;;;;;;10.52;71.33;101938.25;5009531;28;20033;-82
2021/11/20 04:04:01;;;;;;;0.45;0.30;;;;;;;10.54;71.12;101929.66;5018535;28;20041;-81
2021/11/20 04:06:29;;;;;;;1.55;0.22;;;;;;;10.52;71.01;101929.13;5016181;28;20621;-81
2021/11/20 04:08:58;;;;;;;0.73;0.22;;;;;;;10.52;70.80;101934.66;5015928;28;20045;-82
2021/11/20 04:11:30;;;;;;;0.90;0.30;;;;;;;10.52;70.62;101924.41;5015903;28;20073;-82
2021/11/20 04:13:58;;;;;;;;;;;;;;;10.51;70.74;101927.50;5022627;28;20038;-83
2021/11/20 04:16:26;;;;;;;0.32;0.20;;;;;;;10.53;70.74;101930.78;5021295;28;19921;-81
2021/11/20 04:18:54;;;;;;;0.20;0.20;;;;;;;10.51;70.72;101919.22;5017086;28;20125;-83
2021/11/20 04:21:22;;;;;;;2.63;0.52;;;;;;;10.53;70.70;101926.06;5014781;28;20577;-82
2021/11/20 04:23:50;;;;;;;1.63;0.28;;;;;;;10.54;70.42;101922.13;5021852;28;20124;-82
2021/11/20 04:26:20;;;;;;;0.55;0.40;;;;;;;10.54;70.43;101911.06;5022817;28;20029;-82
2021/11/20 04:28:47;;;;;;;0.68;0.30;;;;;;;10.56;70.60;101919.06;5006084;28;20046;-82
2021/11/20 04:31:15;;;;;;;0.70;0.30;;;;;;;10.56;70.39;101914.34;5010253;28;20060;-83
2021/11/20 04:33:43;;;;;;;0.38;0.38;;;;;;;10.60;70.38;101914.53;5019900;28;20033;-82
2021/11/20 04:36:10;;;;;;;0.25;0.25;;;;;;;10.61;70.22;101921.72;5020787;28;20064;-83
2021/11/20 04:38:38;;;;;;;0.65;0.30;;;;;;;10.62;70.23;101918.59;5011958;28;20358;-82
2021/11/20 04:41:05;;;;;;;0.73;0.45;;;;;;;10.63;70.18;101916.66;5015888;28;20045;-83
2021/11/20 04:43:32;;;;;;;1.13;0.50;;;;;;;10.64;70.03;101915.53;5020929;28;20393;-82
2021/11/20 04:45:59;;;;;;;0.52;0.30;;;;;;;10.66;70.14;101919.63;5012178;28;20037;-82
2021/11/20 04:48:26;;;;;;;3.92;0.50;;;;;;;10.66;70.00;101908.53;5017975;28;20045;-82
2021/11/20 04:50:55;;;;;;;1.02;0.55;;;;;;;10.66;70.04;101911.31;5017485;28;20049;-83
2021/11/20 04:53:24;;;;;;;1.17;0.85;;;;;;;10.65;70.09;101897.75;5021650;28;20046;-82
2021/11/20 04:55:57;;;;;;;0.95;0.70;;;;;;;10.66;69.97;101907.72;5015847;28;20041;-83
2021/11/20 04:58:26;;;;;;;0.98;0.60;;;;;;;10.67;70.03;101914.91;5018285;28;20038;-82
2021/11/20 05:00:55;;;;;;;1.23;0.63;;;;;;;10.67;70.07;101914.91;5013234;28;20041;-82
2021/11/20 05:03:24;;;;;;;5.22;1.20;;;;;;;10.66;70.24;101913.25;5013580;28;20053;-82
2021/11/20 05:05:52;;;;;;;1.35;0.57;;;;;;;10.67;70.07;101917.69;5012876;28;20478;-82
2021/11/20 05:08:20;;;;;;;1.38;0.82;;;;;;;10.67;69.94;101918.47;5013489;28;20466;-83
2021/11/20 05:10:49;;;;;;;1.08;0.90;;;;;;;10.67;70.13;101915.69;5004198;28;20063;-82
2021/11/20 05:13:20;;;;;;;0.80;0.80;;;;;;;10.68;70.30;101913.75;5019697;28;20602;-82
2021/11/20 05:15:48;;;;;;;2.03;0.75;;;;;;;10.67;70.24;101903.81;5011395;28;20127;-82
2021/11/20 05:18:15;;;;;;;2.75;1.30;;;;;;;10.68;70.26;101905.44;5017410;28;20049;-82
2021/11/20 05:20:44;;;;;;;2.72;1.20;;;;;;;10.69;70.37;101901.56;4996104;28;20049;-83
2021/11/20 05:23:12;;;;;;;1.20;1.10;;;;;;;10.68;70.30;101905.44;5014448;28;20060;-82
2021/11/20 05:25:38;;;;;;;4.25;0.90;;;;;;;10.68;70.29;101902.66;5014415;28;20030;-81
2021/11/20 05:28:06;;;;;;;2.70;1.20;;;;;;;10.69;70.44;101901.56;5018161;28;20121;-83
2021/11/20 05:30:38;;;;;;;2.08;1.23;;;;;;;10.67;70.24;101901.84;5019260;28;20113;-82
2021/11/20 05:33:11;;;;;;;1.92;1.25;;;;;;;10.68;70.43;101899.91;5021323;28;20060;-82
2021/11/20 05:35:39;;;;;;;2.25;1.50;;;;;;;10.66;70.45;101891.09;5018105;28;20042;-82
2021/11/20 05:38:07;;;;;;;1.73;0.85;;;;;;;10.65;70.65;101884.75;5009849;28;20068;-82
2021/11/20 05:40:37;;;;;;;1.50;0.60;;;;;;;10.65;70.47;101889.47;5024139;28;20048;-82
2021/11/20 05:43:08;;;;;;;2.55;1.17;;;;;;;10.64;70.48;101890.59;5018130;28;20041;-82
2021/11/20 05:45:38;;;;;;;0.98;0.82;;;;;;;10.63;70.66;101891.72;5017815;28;20124;-83
2021/11/20 05:48:06;;;;;;;2.22;0.85;;;;;;;10.61;70.60;101888.47;5014992;28;20042;-83
2021/11/20 05:50:34;;;;;;;3.58;1.45;;;;;;;10.60;70.48;101882.13;5016979;28;20432;-82
2021/11/20 05:53:01;;;;;;;1.60;0.90;;;;;;;10.60;70.44;101886.81;5021902;28;20049;-82
2021/11/20 05:55:32;;;;;;;2.78;2.33;;;;;;;10.60;70.57;101892.38;5017077;28;20069;-82
2021/11/20 05:57:58;;;;;;;2.47;0.80;;;;;;;10.59;70.24;101896.28;5021116;28;20030;-82
2021/11/20 06:00:33;;;;;;;0.68;0.57;;;;;;;10.57;70.59;101881.91;5018360;28;20042;-83
2021/11/20 06:03:02;;;;;;;3.38;1.42;;;;;;;10.60;70.44;101889.59;5016425;28;21463;-82
2021/11/20 06:05:30;;;;;;;2.15;0.63;;;;;;;10.60;70.64;101881.28;5017602;28;20551;-82
2021/11/20 06:07:57;;;;;;;1.58;0.70;;;;;;;10.60;70.46;101889.59;5016733;28;20381;-82
2021/11/20 06:10:24;;;;;;;1.35;0.60;;;;;;;10.61;70.48;101880.16;5022778;28;20129;-82
2021/11/20 06:12:51;;;;;;;4.32;1.23;;;;;;;10.60;70.52;101881.28;5019971;28;20481;-82
2021/11/20 06:15:18;;;;;;;2.72;0.60;;;;;;;10.61;70.35;101877.41;5020523;28;20743;-82
2021/11/20 06:17:45;;;;;;;0.95;0.57;;;;;;;10.60;70.45;101881.28;5032127;28;20103;-83
2021/11/20 06:20:12;;;;;;;1.10;0.60;;;;;;;10.61;70.36;101882.94;5015025;28;20116;-81
2021/11/20 06:22:40;;;;;;;1.50;0.75;;;;;;;10.60;70.57;101875.75;5017434;28;20057;-83
2021/11/20 06:25:08;;;;;;;3.20;0.47;;;;;;;10.60;70.13;101884.06;5027382;28;20092;-82
2021/11/20 06:27:36;;;;;;;2.60;0.60;;;;;;;10.59;70.67;101871.38;5017769;28;20045;-83
2021/11/20 06:30:06;;;;;;;0.73;0.30;;;;;;;10.59;70.41;101874.13;5026341;28;20053;-82
2021/11/20 06:32:33;;;;;;;2.28;1.10;;;;;;;10.59;70.60;101885.22;5016931;28;20056;-83
2021/11/20 06:34:59;;;;;;;2.33;0.50;;;;;;;10.60;70.41;101884.06;5042021;28;20088;-82
2021/11/20 06:37:27;;;;;;;1.75;0.50;;;;;;;10.60;70.36;101882.13;5011688;28;20084;-83
2021/11/20 06:39:53;;;;;;;1.77;0.98;;;;;;;10.58;70.42;101878.03;5021339;28;20045;-82
2021/11/20 06:42:20;;;;;;;2.38;0.63;;;;;;;10.57;70.47;101870.84;5021571;28;20429;-82
2021/11/20 06:44:47;;;;;;;2.28;0.63;;;;;;;10.58;70.51;101884.38;5020098;28;20446;-83
2021/11/20 06:47:14;;;;;;;2.55;0.70;;;;;;;10.58;70.45;101876.09;5012358;28;20046;-82
2021/11/20 06:49:42;;;;;;;2.10;0.70;;;;;;;10.57;70.87;101871.66;5014386;28;20037;-83
2021/11/20 06:52:10;;;;;;;2.47;0.82;;;;;;;10.56;70.83;101869.22;5016412;28;20073;-82
2021/11/20 06:54:37;;;;;;;2.95;1.45;;;;;;;10.55;70.86;101864.81;5019266;28;20081;-83
2021/11/20 06:57:05;;;;;;;1.15;0.80;;;;;;;10.55;70.92;101862.03;5023235;28;20799;-82
2021/11/20 07:02:42;;;;;;;0.93;0.70;;;;;;;10.54;71.18;101868.72;5016554;28;20045;-83
2021/11/20 07:05:12;;;;;;;4.97;1.00;;;;;;;10.53;71.11;101864.31;5000834;28;20049;-84
2021/11/20 07:07:39;;;;;;;6.68;1.05;;;;;;;10.53;71.25;101867.09;5020795;28;20050;-82
2021/11/20 07:10:06;;;;;;;1.38;0.95;;;;;;;10.53;71.16;101858.78;5017518;28;20544;-82
2021/11/20 07:12:33;;;;;;;2.17;0.60;;;;;;;10.53;71.22;101859.59;5023123;28;20061;-82
2021/11/20 07:15:01;;;;;;;2.45;0.40;;;;;;;10.51;71.41;101855.53;5005963;28;20041;-83
2021/11/20 07:17:29;;;;;;;2.28;0.95;;;;;;;10.52;71.43;101854.38;5011883;28;20033;-83
2021/11/20 07:19:55;;;;;;;1.30;0.80;;;;;;;10.50;71.46;101859.41;5019418;28;20536;-82
2021/11/20 07:22:22;;;;;;;1.20;0.82;;;;;;;10.50;71.55;101856.66;5020638;28;20037;-82
2021/11/20 07:24:49;;;;;;;1.83;0.80;;;;;;;10.50;71.58;101859.41;5018255;28;20462;-83
2021/11/20 07:27:16;;;;;;;0.95;0.70;;;;;;;10.52;71.65;101857.13;5023764;28;20045;-82
2021/11/20 07:29:43;;;;;;;1.30;0.90;;;;;;;10.50;71.60;101860.25;5011686;28;20052;-83
2021/11/20 07:32:11;;;;;;;1.65;0.85;;;;;;;10.51;71.57;101852.75;5021662;28;20547;-83
2021/11/20 07:34:38;;;;;;;0.65;0.60;;;;;;;10.53;71.55;101850.47;5027042;28;20045;-83
2021/11/20 07:37:05;;;;;;;2.72;1.35;;;;;;;10.51;71.70;101863.81;5021188;28;20053;-83
2021/11/20 07:39:32;;;;;;;2.47;0.80;;;;;;;10.54;71.60;101857.66;5012370;28;20501;-82
2021/11/20 07:41:59;;;;;;;2.80;0.70;;;;;;;10.54;71.58;101865.97;5021298;28;20048;-82
2021/11/20 07:44:28;;;;;;;3.47;0.80;;;;;;;10.52;71.40;101857.97;5019377;28;20037;-82
2021/11/20 07:46:55;;;;;;;2.58;1.73;;;;;;;10.51;71.70;101855.53;5017981;28;20038;-81
2021/11/20 07:49:22;;;;;;;2.78;0.50;;;;;;;10.49;71.49;101853.06;5015647;28;20080;-82
2021/11/20 07:51:49;;;;;;;3.50;0.90;;;;;;;10.48;71.62;101856.97;5010330;28;20428;-82
2021/11/20 07:54:17;;;;;;;0.65;0.60;;;;;;;10.48;71.82;101859.75;5018594;28;20077;-83
2021/11/20 07:56:44;;;;;;;2.22;0.75;;;;;;;10.46;71.90;101850.13;5019683;28;20034;-82
2021/11/20 07:59:13;;;;;;;2.50;0.77;;;;;;;10.43;71.78;101853.53;5018103;28;20052;-83
2021/11/20 08:01:41;;;;;;;2.17;0.73;;;;;;;10.40;71.79;101852.22;5020482;28;20045;-83
2021/11/20 08:04:09;;;;;;;4.90;0.95;;;;;;;10.42;71.81;101854.66;5019087;28;20041;-83
2021/11/20 08:06:36;;;;;;;3.13;0.68;;;;;;;10.44;72.14;101857.91;5019988;28;20425;-82
2021/11/20 08:09:06;;;;;;;2.83;0.60;;;;;;;10.46;72.05;101866.72;5022746;28;20072;-83
2021/11/20 08:11:35;;;;;;;1.23;0.65;;;;;;;10.47;71.98;101862.81;5024441;28;20124;-82
2021/11/20 08:14:02;;;;;;;1.98;0.65;;;;;;;10.49;72.02;101855.00;5025519;28;20132;-83
2021/11/20 08:16:30;;;;;;;3.03;0.90;;;;;;;10.49;71.86;101866.06;5025345;28;20045;-81
2021/11/20 08:18:57;;;;;;;6.18;1.20;;;;;;;10.49;71.91;101866.06;5006173;28;20046;-83
2021/11/20 08:21:27;;;;;;;1.98;0.65;;;;;;;10.48;71.94;101873.59;5019596;28;20049;-83
2021/11/20 08:23:54;;;;;;;1.13;0.65;;;;;;;10.49;72.15;101868.84;5014303;28;20104;-82
2021/11/20 08:26:24;;;;;;;6.28;0.80;;;;;;;10.48;72.42;101878.31;5013508;28;20084;-83
2021/11/20 08:28:51;;;;;;;3.83;0.60;;;;;;;10.47;72.56;101879.41;5010599;28;20045;-83
2021/11/20 08:31:19;;;;;;;1.20;0.50;;;;;;;10.46;72.84;101880.56;5016465;28;20068;-83
2021/11/20 08:33:46;;;;;;;3.25;0.90;;;;;;;10.44;73.21;101871.75;5015693;28;20091;-83
2021/11/20 08:36:13;;;;;;;4.15;0.45;;;;;;;10.42;73.48;101860.19;5022931;28;20165;-82
2021/11/20 08:38:42;;;;;;;5.20;0.55;;;;;;;10.40;73.95;101861.31;5017273;28;20085;-83
2021/11/20 08:41:10;;;;;;;0.80;0.55;;;;;;;10.39;74.09;101853.31;5017659;28;20103;-84
2021/11/20 08:43:37;;;;;;;3.72;2.65;;;;;;;10.37;74.18;101861.97;5036075;28;20046;-82
2021/11/20 08:46:06;;;;;;;4.05;0.88;;;;;;;10.34;74.37;101862.59;5021413;28;20069;-83
2021/11/20 08:48:33;;;;;;;4.68;0.98;;;;;;;10.34;74.77;101856.22;5016559;28;20041;-82
2021/11/20 08:51:05;;;;;;;1.63;0.77;;;;;;;10.31;75.02;101834.72;5018832;28;20041;-82
2021/11/20 08:53:34;;;;;;;9.07;1.40;;;;;;;10.28;75.16;101830.63;5013991;28;20103;-82
2021/11/20 08:56:01;;;;;;;5.72;1.40;;;;;;;10.27;75.24;101820.69;5016862;28;20124;-82
2021/11/20 08:58:29;;;;;;;2.72;0.70;;;;;;;10.25;75.15;101824.91;5024718;28;20029;-82
2021/11/20 09:01:07;;;;;;;6.68;0.88;;;;;;;10.17;75.67;101818.19;5017932;28;20049;-82
2021/11/20 09:03:46;;;;;;;1.35;0.60;;;;;;;10.16;75.53;101816.56;5016753;28;20041;-83
2021/11/20 09:06:51;;;;;;;0.98;0.45;;;;;;;10.11;75.97;101811.13;5018289;28;20050;-82
2021/11/20 09:09:33;;;;;;;1.55;0.80;;;;;;;10.08;75.80;101816.47;5016595;28;20041;-82
2021/11/20 09:12:08;;;;;;;2.53;0.60;;;;;;;10.02;75.98;101809.44;5019108;28;20129;-82
2021/11/20 09:14:43;;;;;;;4.53;1.92;;;;;;;9.99;76.40;101805.34;5015490;28;20160;-82
2021/11/20 09:17:12;;;;;;;1.92;0.77;;;;;;;9.97;76.62;101802.09;5008483;28;20038;-83
2021/11/20 09:19:41;;;;;;;3.88;0.70;;;;;;;9.98;76.42;101802.91;5019834;28;20538;-82
2021/11/20 09:22:09;;;;;;;3.80;0.82;;;;;;;9.94;76.88;101799.13;5017740;28;20072;-83
2021/11/20 09:24:38;;;;;;;5.07;1.00;;;;;;;9.94;77.14;101797.19;5017689;28;20188;-82
2021/11/20 09:27:25;;;;;;;4.05;0.65;;;;;;;9.92;77.39;101801.41;5013717;28;20059;-82
2021/11/20 09:29:52;;;;;;;3.15;1.27;;;;;;;9.91;77.57;101797.00;5021310;28;20065;-82
2021/11/20 09:32:20;;;;;;;1.73;1.33;;;;;;;9.91;77.55;101802.53;5021442;28;20103;-82
2021/11/20 09:34:46;;;;;;;6.15;1.63;;;;;;;9.91;77.68;101792.28;5020392;28;21977;-81
2021/11/20 09:37:14;;;;;;;4.35;1.20;;;;;;;9.94;77.55;101794.41;5017250;28;20034;-82
2021/11/20 09:39:42;;;;;;;3.38;1.80;;;;;;;9.95;77.84;101796.06;5019691;28;20076;-82
2021/11/20 09:42:27;;;;;;;3.65;0.95;;;;;;;9.98;78.06;101786.31;5027585;28;20045;-82
2021/11/20 09:45:16;;;;;;;5.45;1.20;;;;;;;9.96;78.55;101783.03;5027511;28;20091;-83
2021/11/20 09:47:45;;;;;;;3.13;0.60;;;;;;;9.98;78.11;101778.81;5026530;28;20069;-82
2021/11/20 09:50:12;;;;;;;5.18;0.90;;;;;;;10.01;78.37;101785.66;5026314;28;20079;-83
2021/11/20 09:52:41;;;;;;;8.20;1.30;;;;;;;10.02;78.65;101781.78;5024246;28;20069;-82
2021/11/20 09:55:12;;;;;;;3.95;0.77;;;;;;;10.04;78.41;101780.31;5028491;28;20061;-82
2021/11/20 09:57:49;;;;;;;7.95;1.00;;;;;;;10.09;78.44;101785.72;5026135;28;20037;-83
2021/11/20 10:00:40;;;;;;;4.55;0.90;;;;;;;10.11;78.60;101780.69;5009672;28;20041;-84
2021/11/20 10:03:11;;;;;;;3.10;0.97;;;;;;;10.12;79.25;101773.19;5020041;28;20045;-85
2021/11/20 10:05:42;;;;;;;5.93;1.20;;;;;;;10.15;78.67;101770.66;5025982;28;20038;-92
2021/11/20 10:08:23;;;;;;;6.50;2.23;;;;;;;10.18;78.92;101774.75;5012186;28;20432;-89
2021/11/20 10:11:08;;;;;;;4.95;1.10;;;;;;;10.23;79.07;101780.94;5027332;28;20060;-88
2021/11/20 10:13:52;;;;;;;4.57;1.30;;;;;;;10.25;78.84;101770.38;5028560;28;20049;-84
2021/11/20 10:16:24;;;;;;;7.03;0.90;;;;;;;10.32;78.42;101776.28;5028558;28;20048;-82
2021/11/20 10:19:03;;;;;;;2.55;0.80;;;;;;;10.36;78.64;101770.91;5025538;28;21989;-82
2021/11/20 10:21:34;;;;;;;3.95;0.70;;;;;;;10.37;78.60;101762.31;5027917;28;20084;-84
2021/11/20 10:24:17;;;;;;;4.10;0.80;;;;;;;10.39;78.58;101767.50;5024557;28;20048;-82
2021/11/20 10:27:09;;;;;;;4.93;1.10;;;;;;;10.44;78.64;101764.59;5022171;28;20544;-83
2021/11/20 10:30:07;;;;;;;6.75;1.27;;;;;;;10.47;78.46;101760.38;5026141;28;20037;-85
2021/11/20 10:32:42;;;;;;;6.80;1.15;;;;;;;10.52;78.57;101768.53;5024443;28;20042;-84
2021/11/20 10:35:18;;;;;;;6.03;1.08;;;;;;;10.55;78.48;101767.91;5028513;28;20107;-84
2021/11/20 10:38:13;;;;;;;5.20;1.63;;;;;;;10.58;78.19;101761.72;5010826;28;20095;-83
2021/11/20 10:40:57;;;;;;;2.00;0.65;;;;;;;10.66;78.45;101766.47;5024949;28;20054;-82
2021/11/20 10:43:38;;;;;;;4.35;1.13;;;;;;;10.70;78.13;101756.38;5019027;28;20045;-83
2021/11/20 10:46:52;;;;;;;1.55;0.77;;;;;;;10.72;78.04;101765.19;5024521;28;20065;-84
2021/11/20 10:49:38;;;;;;;5.78;0.82;;;;;;;10.75;77.87;101767.34;5021484;28;20037;-83
2021/11/20 10:52:06;;;;;;;2.38;0.63;;;;;;;10.78;77.76;101766.66;5020940;28;20037;-82
2021/11/20 10:55:15;;;;;;;2.53;0.85;;;;;;;10.79;77.76;101762.78;5028367;28;20034;-83
2021/11/20 10:58:20;;;;;;;5.07;1.30;;;;;;;10.81;77.87;101750.22;5018821;28;20444;-83
2021/11/20 11:00:47;;;;;;;3.58;0.65;;;;;;;10.89;77.63;101751.38;5021158;28;20112;-83
2021/11/20 11:03:25;;;;;;;2.15;0.75;;;;;;;10.90;77.47;101755.78;5024593;28;20037;-83
2021/11/20 11:06:26;;;;;;;5.53;1.05;;;;;;;10.90;77.44;101736.41;5004428;28;20100;-83
2021/11/20 11:09:03;;;;;;;5.45;1.63;;;;;;;10.95;77.48;101727.94;5026579;28;20041;-82
2021/11/20 11:11:39;;;;;;;2.08;0.90;;;;;;;10.98;77.42;101732.81;5024424;28;20069;-83
2021/11/20 11:14:17;;;;;;;6.47;1.80;;;;;;;11.05;77.37;101735.09;5016855;28;20505;-84
2021/11/20 11:16:53;;;;;;;7.63;1.52;;;;;;;11.10;77.42;101730.22;5019202;28;20057;-82
2021/11/20 11:19:43;;;;;;;4.30;1.00;;;;;;;11.16;77.32;101726.16;5018139;28;20496;-82
2021/11/20 11:22:24;;;;;;;5.47;0.80;;;;;;;11.21;76.92;101726.00;5023221;28;20040;-81
2021/11/20 11:25:13;;;;;;;4.00;2.55;;;;;;;11.25;76.94;101721.41;5025848;28;20096;-84
2021/11/20 11:27:58;;;;;;;3.40;0.70;;;;;;;11.32;77.16;101720.94;5006244;28;20037;-84
2021/11/20 11:30:31;;;;;;;2.20;0.90;;;;;;;11.39;77.12;101733.16;5025876;28;20037;-90
2021/11/20 11:32:59;;;;;;;5.85;1.00;;;;;;;11.49;76.97;101710.66;5028309;28;20042;-90
2021/11/20 11:35:38;;;;;;;2.70;0.80;;;;;;;11.61;76.92;101713.59;5024941;28;20034;-93
2021/11/20 11:38:33;;;;;;;9.00;1.10;;;;;;;11.68;76.26;101706.69;5028636;28;20084;-85
2021/11/20 11:41:21;;;;;;;3.58;1.23;;;;;;;11.75;76.47;101707.06;5022852;28;20049;-84
2021/11/20 11:44:09;;;;;;;3.45;1.27;;;;;;;11.79;76.16;101706.06;5032709;28;20136;-88
2021/11/20 11:47:05;;;;;;;6.07;1.20;;;;;;;11.84;76.45;101705.06;5024972;28;20044;-88
2021/11/20 11:49:47;;;;;;;2.45;1.23;;;;;;;11.85;75.92;101701.16;5022968;28;20054;-85
2021/11/20 11:52:23;;;;;;;4.25;0.80;;;;;;;11.94;76.19;101696.41;5016674;28;20096;-83